»·PEaware :: DAL213 KSLC-KEGE

DAL213 :: KSLC-KEGE

FLIGHT INFORMATION

Flight Status: Arrived
Operator:
Delta Air Lines
More flights by this operator :: More flights under this callsign
Pilot: Nicolas L. (9332)
Aircraft: BOEING 737-800
(B738)
More flights by this aircraft type
Origin: KSLC Salt Lake City Intl
United States
Destination: KEGE Eagle Co Regl
United States
More flights between these airports :: More routes between these airports
Route: +RUGGD1 EKR RLG
File this flight plan on PilotEdge
Remarks: Live Streaming on Twitch "DAL213" and YT
Altitude:
(Current/Filed)
31,000ft
Speed:
(Current/Filed)
400kts
Departed: 02-Oct-18 08:02 PM
Arrived: 02-Oct-18 09:00 PM
Distance/Time
Traveled:
301nm/0:58
Distance/Time
To Go:
Arrived

Flight Plot

Page will automatically refresh every two minutes.

Flight plan parsing failed; only flown route is shown


Map Options




Map Legend


Flown Route
Filed Route
Departure Airport
Arrival Airport
Navaid (VOR, NDB)
Fix

Horizontal Profiles

Position Reports

Time Latitude Longitude Heading Altitude Ground
Speed
02-Oct-18 19:27 40.787830 -111.977872 265 4236ft 0kts
02-Oct-18 19:28 40.787830 -111.977872 265 4236ft 0kts
02-Oct-18 19:29 40.787830 -111.977872 265 4236ft 0kts
02-Oct-18 19:30 40.787830 -111.977872 265 4236ft 0kts
02-Oct-18 19:31 40.787830 -111.977872 265 4236ft 0kts
02-Oct-18 19:32 40.787830 -111.977872 265 4236ft 0kts
02-Oct-18 19:33 40.787830 -111.977872 265 4236ft 0kts
02-Oct-18 19:34 40.787830 -111.977872 265 4236ft 0kts
02-Oct-18 19:35 40.787830 -111.977872 265 4236ft 0kts
02-Oct-18 19:36 40.787830 -111.977872 265 4236ft 0kts
02-Oct-18 19:37 40.787830 -111.977872 265 4236ft 0kts
02-Oct-18 19:38 40.787830 -111.977872 265 4236ft 0kts
02-Oct-18 19:39 40.787830 -111.977872 265 4236ft 0kts
02-Oct-18 19:40 40.787830 -111.977872 265 4236ft 0kts
02-Oct-18 19:41 40.787830 -111.977872 265 4236ft 0kts
02-Oct-18 19:42 40.787830 -111.977872 265 4236ft 0kts
02-Oct-18 19:43 40.787830 -111.977872 265 4236ft 0kts
02-Oct-18 19:44 40.787830 -111.977872 265 4236ft 0kts
02-Oct-18 19:45 40.787830 -111.977872 265 4236ft 0kts
02-Oct-18 19:46 40.787830 -111.977872 265 4236ft 0kts
02-Oct-18 19:47 40.787830 -111.977872 265 4236ft 0kts
02-Oct-18 19:48 40.787830 -111.977872 265 4236ft 0kts
02-Oct-18 19:49 40.787830 -111.977872 265 4236ft 0kts
02-Oct-18 19:50 40.787830 -111.977872 265 4236ft 0kts
02-Oct-18 19:51 40.787830 -111.977872 265 4236ft 0kts
02-Oct-18 19:52 40.787830 -111.977872 265 4236ft 0kts
02-Oct-18 19:53 40.787781 -111.977370 293 4236ft 2kts
02-Oct-18 19:54 40.787436 -111.976884 330 4236ft 0kts
02-Oct-18 19:55 40.787436 -111.976884 330 4236ft 0kts
02-Oct-18 19:56 40.787436 -111.976884 330 4236ft 0kts
02-Oct-18 19:57 40.787534 -111.976900 4 4236ft 6kts
02-Oct-18 19:58 40.791589 -111.977297 352 4236ft 15kts
02-Oct-18 19:59 40.792290 -111.977411 355 4236ft 0kts
02-Oct-18 20:00 40.796060 -111.977858 353 4236ft 21kts
02-Oct-18 20:01 40.800807 -111.978404 355 4236ft 14kts
02-Oct-18 20:02 40.806299 -111.979024 353 4236ft 18kts
02-Oct-18 20:03 40.807483 -111.978695 83 4236ft 0kts
02-Oct-18 20:04 40.801705 -111.976479 171 4236ft 93kts
02-Oct-18 20:05 40.759252 -111.983079 233 5382ft 179kts
02-Oct-18 20:06 40.773829 -112.049253 306 7085ft 242kts
02-Oct-18 20:07 40.822263 -112.125844 307 9406ft 292kts
02-Oct-18 20:08 40.897103 -112.190470 350 15966ft 377kts
02-Oct-18 20:09 40.985284 -112.118127 73 21668ft 422kts
02-Oct-18 20:10 40.958425 -111.971052 118 22914ft 439kts
02-Oct-18 20:11 40.912691 -111.815715 115 23421ft 461kts
02-Oct-18 20:12 40.865350 -111.650950 117 29191ft 495kts
02-Oct-18 20:13 40.816212 -111.480137 117 30358ft 499kts
02-Oct-18 20:14 40.771424 -111.305488 112 31028ft 507kts
02-Oct-18 20:15 40.731686 -111.127880 112 31053ft 504kts
02-Oct-18 20:16 40.716186 -110.944295 78 31072ft 524kts
02-Oct-18 20:17 40.797826 -110.787453 41 31069ft 529kts
02-Oct-18 20:18 40.904176 -110.652906 42 31085ft 529kts
02-Oct-18 20:19 41.002449 -110.507857 51 31076ft 530kts
02-Oct-18 20:20 41.081554 -110.343939 61 31073ft 530kts
02-Oct-18 20:21 41.168277 -110.185459 51 31075ft 530kts
02-Oct-18 20:22 41.257638 -110.030299 50 31061ft 528kts
02-Oct-18 20:23 41.330645 -109.864439 87 31090ft 522kts
02-Oct-18 20:24 41.289512 -109.689524 136 31071ft 484kts
02-Oct-18 20:25 41.200147 -109.556697 139 31050ft 483kts
02-Oct-18 20:26 41.110238 -109.424179 139 31041ft 484kts
02-Oct-18 20:27 41.019989 -109.291440 139 31036ft 484kts
02-Oct-18 20:28 40.929713 -109.159244 139 31033ft 485kts
02-Oct-18 20:29 40.839201 -109.027274 139 31026ft 485kts
02-Oct-18 20:30 40.748250 -108.895255 139 31024ft 485kts
02-Oct-18 20:31 40.657431 -108.763994 140 31028ft 486kts
02-Oct-18 20:32 40.565905 -108.632305 140 31047ft 487kts
02-Oct-18 20:33 40.474408 -108.501221 140 31056ft 487kts
02-Oct-18 20:34 40.382355 -108.369861 140 31061ft 488kts
02-Oct-18 20:35 40.290316 -108.239160 140 31068ft 489kts
02-Oct-18 20:36 40.198013 -108.108638 140 31080ft 489kts
02-Oct-18 20:37 40.105594 -107.977224 135 31090ft 495kts
02-Oct-18 20:38 40.072831 -107.797649 97 31104ft 528kts
02-Oct-18 20:39 40.063086 -107.606047 97 31104ft 528kts
02-Oct-18 20:40 40.052513 -107.416274 97 28548ft 525kts
02-Oct-18 20:41 40.041531 -107.228575 97 26004ft 508kts
02-Oct-18 20:42 40.031247 -107.048624 95 24082ft 482kts
02-Oct-18 20:43 40.032469 -106.878803 84 22472ft 461kts
02-Oct-18 20:44 40.046627 -106.715784 84 20542ft 444kts
02-Oct-18 20:45 40.060145 -106.558131 84 18449ft 429kts
02-Oct-18 20:46 40.073084 -106.406158 84 16309ft 415kts
02-Oct-18 20:47 40.062647 -106.268305 130 15187ft 344kts
02-Oct-18 20:48 39.989204 -106.236072 212 15036ft 277kts
02-Oct-18 20:49 39.967314 -106.321144 284 15019ft 278kts
02-Oct-18 20:50 39.991864 -106.415771 267 14997ft 269kts
02-Oct-18 20:51 39.948757 -106.481864 216 14486ft 239kts
02-Oct-18 20:52 39.893424 -106.530272 215 13191ft 246kts
02-Oct-18 20:53 39.835563 -106.578008 215 13238ft 247kts
02-Oct-18 20:54 39.773052 -106.613675 189 13396ft 247kts
02-Oct-18 20:55 39.721598 -106.662927 231 12619ft 228kts
02-Oct-18 20:56 39.689541 -106.726746 244 11901ft 192kts
02-Oct-18 20:57 39.677015 -106.787526 260 10329ft 172kts
02-Oct-18 20:58 39.671709 -106.844867 260 9365ft 163kts
02-Oct-18 20:59 39.664079 -106.902847 258 8377ft 160kts
02-Oct-18 21:00 39.654118 -106.957013 208 7082ft 151kts
02-Oct-18 21:01 39.642382 -106.919240 80 6544ft 110kts
02-Oct-18 21:02 39.642389 -106.909585 234 6544ft 10kts
02-Oct-18 21:03 39.641931 -106.913481 262 6544ft 6kts
02-Oct-18 21:04 39.640757 -106.915482 171 6544ft 7kts
02-Oct-18 21:05 39.640610 -106.915455 172 6544ft 0kts
02-Oct-18 21:06 39.640610 -106.915455 172 6544ft 0kts
02-Oct-18 21:07 39.640610 -106.915455 172 6544ft 0kts
02-Oct-18 21:08 39.640610 -106.915455 172 6544ft 0kts
02-Oct-18 21:09 45.804427 -108.535968 180 3589ft 0kts
02-Oct-18 21:10 45.774627 -111.153755 316 4480ft 0kts

Navigation Log

Ident Type
Flight plan parsing failed, navigation log unavailable